Hlavní strana
METAR-TAF:

METAR-TAF

Letiště :

Monticello, Kentucky, Spojené státy americké

zeměpisná šířka: 36-51-19N, zeměpisná délka: 084-51-22W, výška: 294 m

Aktuální stav počasí

Zpráva byla vytvořena před 20 minutami, v 10:56 UTC
vítr z různých směrů 5 kt
Teplota -8°C
Vlhkost vzduchu 73%
Tlak 1030 hPa
Viditelnost: 16.1 km
Jasno

METAR: KEKQ 221056Z AUTO VRB05KT 10SM CLR M08/M12 A3043 RMK AO2 SLP333 T10781117 PNO $

Čas: 06:16 (11:16 UTC)


TAF: chybějící

Stav a předpovědi počasí z více než 4 000 letišť (zprávy METAR a TAF).

Červené a žluté tečky na mapě představují dostupné meteorologické stanice.

Když kurzor umístíte na tečku, zobrazí se název stanice.

Pak kliknutím zobrazíte stav a předpověď počasí.

Chcete-li změnit mapu, kliknutím na zelené tlačítko se znaménkem +mapu přiblížíte, kliknutím na zelené tlačítko se znaménkem – mapu oddálíte a kliknutím na zelené šipky přejdete na sousední mapy.


METAR-TAF: